This is the latest recevied weather packets stored in our database for station/object KE4LOJ. If no packets are shown the sender has not sent any weather packets the latest 10 day(s).
| Time | Temp. | Humidity | Pressure | Rain* | Wind** | Luminosity | Snow |
|---|---|---|---|---|---|---|---|
| 1777910011 | 25° C | 55% | 1018.2 hPa | 0 mm | - | 183 W/m² | - |
| 1777909708 | 25° C | 53% | 1018.5 hPa | 0 mm | - | 840 W/m² | - |
| 1777909405 | 24.44° C | 53% | 1018.1 hPa | 0 mm | - | 183 W/m² | - |
| 1777909103 | 24.44° C | 50% | 1018.2 hPa | 0 mm | - | 235 W/m² | - |
| 1777908801 | 24.44° C | 50% | 1018.4 hPa | 0 mm | - | 209 W/m² | - |
| 1777908497 | 25.56° C | 49% | 1018.3 hPa | 0 mm | - | 793 W/m² | - |
| 1777908194 | 25° C | 49% | 1018.3 hPa | 0 mm | - | 688 W/m² | - |
| 1777907890 | 25° C | 50% | 1018.4 hPa | 0 mm | - | 541 W/m² | - |
| 1777907586 | 25° C | 48% | 1018.6 hPa | 0 mm | - | 707 W/m² | - |
| 1777907282 | 24.44° C | 51% | 1018.7 hPa | 0 mm | - | 493 W/m² | - |
| 1777906979 | 24.44° C | 53% | 1018.4 hPa | 0 mm | - | 666 W/m² | - |
| 1777906676 | 23.89° C | 54% | 1018.5 hPa | 0 mm | - | 700 W/m² | - |
| 1777906372 | 24.44° C | 54% | 1018.3 hPa | 0 mm | - | 644 W/m² | - |
| 1777906069 | 24.44° C | 52% | 1018.5 hPa | 0 mm | - | 613 W/m² | - |
| 1777905766 | 24.44° C | 50% | 1018.7 hPa | 0 mm | - | 597 W/m² | - |
| 1777905463 | 24.44° C | 49% | 1018.6 hPa | 0 mm | - | 584 W/m² | - |
| 1777905160 | 23.89° C | 51% | 1018.6 hPa | 0 mm | - | 569 W/m² | - |
| 1777904857 | 23.89° C | 50% | 1018.6 hPa | 0 mm | - | 555 W/m² | - |
| 1777904555 | 23.89° C | 51% | 1018.4 hPa | 0 mm | - | 539 W/m² | - |
| 1777904251 | 24.44° C | 53% | 1018.5 hPa | 0 mm | - | 525 W/m² | - |
| 1777903949 | 23.89° C | 55% | 1018.2 hPa | 0 mm | - | 508 W/m² | - |
| 1777903645 | 23.89° C | 56% | 1018.1 hPa | 0 mm | - | 468 W/m² | - |
| 1777903340 | 23.33° C | 57% | 1018.1 hPa | 0 mm | - | 252 W/m² | - |
| 1777903038 | 23.33° C | 60% | 1018.1 hPa | 0 mm | - | 62 W/m² | - |
| 1777902734 | 23.33° C | 60% | 1018.1 hPa | 0 mm | - | 66 W/m² | - |
* Rain latest hour (hover to see other rain measurements)
** Current wind speed in m/s (hover to see current wind gust speed)